CWC4 weather

Wetaskiwin (Hospital & Care Centre) Heliport
Wetaskiwin, Alberta, Canada

Public forecast

Using degrees Celsius for public forecast. Weather courtesy of forecast.io.

Closest aviation weather report (METAR) to Wetaskiwin (Hospital & Care Centre) Heliport

Closest report is Edmonton International Airport, 20.7 nm (38.4 km) NNW. Retrieved 2020/04/08 23:00 UTC (54 minutes ago):

CYEG 082300Z 01008KT 20SM FEW060 FEW130 FEW160 BKN250 02/M07 A3022 RMK SC1AS2AC1CI5 SC TR AC TR SLP272

Closest aviation forecast (TAF) to Wetaskiwin (Hospital & Care Centre) Heliport

Closest forecast is Edmonton International Airport, 20.7 nm (38.4 km) NNW. Retrieved 2020/04/08 21:42 UTC (2 hours ago):

TAF TAF CYEG 082038Z 0821/0918 32012G22KT P6SM FEW140 SCT220 BECMG 0822/0824 32008KT BECMG 0903/0905 17008KT FM090800 17010KT P6SM BKN080 OVC200 BECMG 0912/0914 18015KT RMK NXT FCST BY 090000Z